sensor_id;sensor_type;location;lat;lon;timestamp;temperature;humidity
51884;DHT22;37915;53.254;6.598;2023-06-14T00:00:40;16.00;99.50
51884;DHT22;37915;53.254;6.598;2023-06-14T00:03:09;15.90;99.60
51884;DHT22;37915;53.254;6.598;2023-06-14T00:05:38;15.90;99.70
51884;DHT22;37915;53.254;6.598;2023-06-14T00:08:11;15.80;99.80
51884;DHT22;37915;53.254;6.598;2023-06-14T00:10:37;15.80;99.90
51884;DHT22;37915;53.254;6.598;2023-06-14T00:13:03;15.80;99.90
51884;DHT22;37915;53.254;6.598;2023-06-14T00:15:33;15.70;99.90
51884;DHT22;37915;53.254;6.598;2023-06-14T00:17:59;15.70;99.90
51884;DHT22;37915;53.254;6.598;2023-06-14T00:20:30;15.70;99.90
51884;DHT22;37915;53.254;6.598;2023-06-14T00:22:58;15.60;99.90
51884;DHT22;37915;53.254;6.598;2023-06-14T00:25:24;15.60;99.90
51884;DHT22;37915;53.254;6.598;2023-06-14T00:27:56;15.60;99.90
51884;DHT22;37915;53.254;6.598;2023-06-14T00:30:22;15.60;99.90
51884;DHT22;37915;53.254;6.598;2023-06-14T00:32:49;15.50;99.90
51884;DHT22;37915;53.254;6.598;2023-06-14T00:35:15;15.50;99.90
51884;DHT22;37915;53.254;6.598;2023-06-14T00:37:41;15.40;99.90
51884;DHT22;37915;53.254;6.598;2023-06-14T00:40:07;15.40;99.90
51884;DHT22;37915;53.254;6.598;2023-06-14T00:42:33;15.40;99.90
51884;DHT22;37915;53.254;6.598;2023-06-14T00:44:59;15.40;99.90
51884;DHT22;37915;53.254;6.598;2023-06-14T00:47:25;15.30;99.90
51884;DHT22;37915;53.254;6.598;2023-06-14T00:49:53;15.30;99.90
51884;DHT22;37915;53.254;6.598;2023-06-14T00:52:20;15.30;99.90
51884;DHT22;37915;53.254;6.598;2023-06-14T00:54:46;15.30;99.90
51884;DHT22;37915;53.254;6.598;2023-06-14T00:57:12;15.20;99.90
51884;DHT22;37915;53.254;6.598;2023-06-14T00:59:43;15.20;99.90
51884;DHT22;37915;53.254;6.598;2023-06-14T01:02:09;15.20;99.90
51884;DHT22;37915;53.254;6.598;2023-06-14T01:04:35;15.20;99.90
51884;DHT22;37915;53.254;6.598;2023-06-14T01:07:43;15.20;99.90
51884;DHT22;37915;53.254;6.598;2023-06-14T01:13:06;15.20;99.90
51884;DHT22;37915;53.254;6.598;2023-06-14T01:15:33;15.20;99.90
51884;DHT22;37915;53.254;6.598;2023-06-14T01:17:59;15.10;99.90
51884;DHT22;37915;53.254;6.598;2023-06-14T01:20:29;15.10;99.90
51884;DHT22;37915;53.254;6.598;2023-06-14T01:22:56;15.10;99.90
51884;DHT22;37915;53.254;6.598;2023-06-14T01:25:22;15.00;99.90
51884;DHT22;37915;53.254;6.598;2023-06-14T01:27:50;15.00;99.90
51884;DHT22;37915;53.254;6.598;2023-06-14T01:30:17;15.00;99.90
51884;DHT22;37915;53.254;6.598;2023-06-14T01:32:44;14.90;99.90
51884;DHT22;37915;53.254;6.598;2023-06-14T01:35:10;14.90;99.90
51884;DHT22;37915;53.254;6.598;2023-06-14T01:37:36;14.80;99.90
51884;DHT22;37915;53.254;6.598;2023-06-14T01:40:04;14.80;99.90
51884;DHT22;37915;53.254;6.598;2023-06-14T01:42:35;14.80;99.90
51884;DHT22;37915;53.254;6.598;2023-06-14T01:45:03;14.80;99.90
51884;DHT22;37915;53.254;6.598;2023-06-14T01:47:31;14.80;99.90
51884;DHT22;37915;53.254;6.598;2023-06-14T01:49:57;14.80;99.90
51884;DHT22;37915;53.254;6.598;2023-06-14T01:52:23;14.80;99.90
51884;DHT22;37915;53.254;6.598;2023-06-14T01:54:50;14.80;99.90
51884;DHT22;37915;53.254;6.598;2023-06-14T01:57:16;14.70;99.90
51884;DHT22;37915;53.254;6.598;2023-06-14T01:59:42;14.70;99.90
51884;DHT22;37915;53.254;6.598;2023-06-14T02:02:08;14.70;99.90
51884;DHT22;37915;53.254;6.598;2023-06-14T02:04:34;14.70;99.90
51884;DHT22;37915;53.254;6.598;2023-06-14T02:07:00;14.70;99.90
51884;DHT22;37915;53.254;6.598;2023-06-14T02:09:25;14.60;99.90
51884;DHT22;37915;53.254;6.598;2023-06-14T02:11:51;14.60;99.90
51884;DHT22;37915;53.254;6.598;2023-06-14T02:14:17;14.60;99.90
51884;DHT22;37915;53.254;6.598;2023-06-14T02:16:43;14.60;99.90
51884;DHT22;37915;53.254;6.598;2023-06-14T02:19:18;14.60;99.90
51884;DHT22;37915;53.254;6.598;2023-06-14T02:21:45;14.60;99.90
51884;DHT22;37915;53.254;6.598;2023-06-14T02:24:10;14.60;99.90
51884;DHT22;37915;53.254;6.598;2023-06-14T02:26:37;14.60;99.90
51884;DHT22;37915;53.254;6.598;2023-06-14T02:29:08;14.50;99.90
51884;DHT22;37915;53.254;6.598;2023-06-14T02:31:36;14.50;99.90
51884;DHT22;37915;53.254;6.598;2023-06-14T02:34:02;14.50;99.90
51884;DHT22;37915;53.254;6.598;2023-06-14T02:36:28;14.50;99.90
51884;DHT22;37915;53.254;6.598;2023-06-14T02:38:56;14.40;99.90
51884;DHT22;37915;53.254;6.598;2023-06-14T02:41:25;14.50;99.90
51884;DHT22;37915;53.254;6.598;2023-06-14T02:43:52;14.50;99.90
51884;DHT22;37915;53.254;6.598;2023-06-14T02:46:18;14.50;99.90
51884;DHT22;37915;53.254;6.598;2023-06-14T02:48:43;14.40;99.90
51884;DHT22;37915;53.254;6.598;2023-06-14T02:51:09;14.40;99.90
51884;DHT22;37915;53.254;6.598;2023-06-14T02:53:36;14.40;99.90
51884;DHT22;37915;53.254;6.598;2023-06-14T02:56:02;14.40;99.90
51884;DHT22;37915;53.254;6.598;2023-06-14T02:58:29;14.40;99.90
51884;DHT22;37915;53.254;6.598;2023-06-14T03:00:55;14.30;99.90
51884;DHT22;37915;53.254;6.598;2023-06-14T03:03:21;14.20;99.90
51884;DHT22;37915;53.254;6.598;2023-06-14T03:05:50;14.20;99.90
51884;DHT22;37915;53.254;6.598;2023-06-14T03:08:16;14.10;99.90
51884;DHT22;37915;53.254;6.598;2023-06-14T03:10:48;14.10;99.90
51884;DHT22;37915;53.254;6.598;2023-06-14T03:13:14;14.10;99.90
51884;DHT22;37915;53.254;6.598;2023-06-14T03:15:41;14.10;99.90
51884;DHT22;37915;53.254;6.598;2023-06-14T03:18:08;14.10;99.90
51884;DHT22;37915;53.254;6.598;2023-06-14T03:20:35;14.10;99.90
51884;DHT22;37915;53.254;6.598;2023-06-14T03:23:02;14.10;99.90
51884;DHT22;37915;53.254;6.598;2023-06-14T03:25:29;14.20;99.90
51884;DHT22;37915;53.254;6.598;2023-06-14T03:27:58;14.10;99.90
51884;DHT22;37915;53.254;6.598;2023-06-14T03:30:23;14.10;99.90
51884;DHT22;37915;53.254;6.598;2023-06-14T03:32:49;14.10;99.90
51884;DHT22;37915;53.254;6.598;2023-06-14T03:35:17;14.10;99.90
51884;DHT22;37915;53.254;6.598;2023-06-14T03:37:44;14.10;99.90
51884;DHT22;37915;53.254;6.598;2023-06-14T03:40:11;14.10;99.90
51884;DHT22;37915;53.254;6.598;2023-06-14T03:42:37;14.10;99.90
51884;DHT22;37915;53.254;6.598;2023-06-14T03:45:03;14.10;99.90
51884;DHT22;37915;53.254;6.598;2023-06-14T03:47:28;14.00;99.90
51884;DHT22;37915;53.254;6.598;2023-06-14T03:49:55;14.00;99.90
51884;DHT22;37915;53.254;6.598;2023-06-14T03:52:20;14.00;99.90
51884;DHT22;37915;53.254;6.598;2023-06-14T03:54:47;14.00;99.90
51884;DHT22;37915;53.254;6.598;2023-06-14T03:57:13;14.10;99.90
51884;DHT22;37915;53.254;6.598;2023-06-14T03:59:39;14.10;99.90
51884;DHT22;37915;53.254;6.598;2023-06-14T04:02:05;14.10;99.90
51884;DHT22;37915;53.254;6.598;2023-06-14T04:04:30;14.10;99.90
51884;DHT22;37915;53.254;6.598;2023-06-14T04:06:57;14.10;99.90
51884;DHT22;37915;53.254;6.598;2023-06-14T04:09:24;14.20;99.90
51884;DHT22;37915;53.254;6.598;2023-06-14T04:11:53;14.20;99.90
51884;DHT22;37915;53.254;6.598;2023-06-14T04:14:19;14.20;99.90
51884;DHT22;37915;53.254;6.598;2023-06-14T04:16:47;14.20;99.90
51884;DHT22;37915;53.254;6.598;2023-06-14T04:19:13;14.30;99.90
51884;DHT22;37915;53.254;6.598;2023-06-14T04:21:38;14.20;99.90
51884;DHT22;37915;53.254;6.598;2023-06-14T04:24:04;14.30;99.90
51884;DHT22;37915;53.254;6.598;2023-06-14T04:26:30;14.30;99.90
51884;DHT22;37915;53.254;6.598;2023-06-14T04:28:59;14.40;99.90
51884;DHT22;37915;53.254;6.598;2023-06-14T04:31:30;14.40;99.90
51884;DHT22;37915;53.254;6.598;2023-06-14T04:33:59;14.50;99.90
51884;DHT22;37915;53.254;6.598;2023-06-14T04:36:25;14.60;99.90
51884;DHT22;37915;53.254;6.598;2023-06-14T04:38:52;14.70;99.90
51884;DHT22;37915;53.254;6.598;2023-06-14T04:41:21;14.70;99.90
51884;DHT22;37915;53.254;6.598;2023-06-14T04:43:48;14.80;99.90
51884;DHT22;37915;53.254;6.598;2023-06-14T04:46:15;14.90;99.90
51884;DHT22;37915;53.254;6.598;2023-06-14T04:48:41;15.00;99.90
51884;DHT22;37915;53.254;6.598;2023-06-14T04:51:11;15.10;99.90
51884;DHT22;37915;53.254;6.598;2023-06-14T04:53:37;15.10;99.90
51884;DHT22;37915;53.254;6.598;2023-06-14T04:56:03;15.10;99.90
51884;DHT22;37915;53.254;6.598;2023-06-14T04:58:29;15.10;99.90
51884;DHT22;37915;53.254;6.598;2023-06-14T05:00:55;15.10;99.90
51884;DHT22;37915;53.254;6.598;2023-06-14T05:03:25;15.20;99.90
51884;DHT22;37915;53.254;6.598;2023-06-14T05:05:52;15.20;99.90
51884;DHT22;37915;53.254;6.598;2023-06-14T05:08:21;15.30;99.90
51884;DHT22;37915;53.254;6.598;2023-06-14T05:10:49;15.30;99.90
51884;DHT22;37915;53.254;6.598;2023-06-14T05:13:15;15.40;99.90
51884;DHT22;37915;53.254;6.598;2023-06-14T05:15:40;15.40;99.90
51884;DHT22;37915;53.254;6.598;2023-06-14T05:18:06;15.40;99.90
51884;DHT22;37915;53.254;6.598;2023-06-14T05:20:35;15.40;99.90
51884;DHT22;37915;53.254;6.598;2023-06-14T05:23:02;15.40;99.90
51884;DHT22;37915;53.254;6.598;2023-06-14T05:25:28;15.50;99.90
51884;DHT22;37915;53.254;6.598;2023-06-14T05:27:54;15.60;99.90
51884;DHT22;37915;53.254;6.598;2023-06-14T05:30:20;15.60;99.90
51884;DHT22;37915;53.254;6.598;2023-06-14T05:32:46;15.70;99.90
51884;DHT22;37915;53.254;6.598;2023-06-14T05:35:11;15.70;99.90
51884;DHT22;37915;53.254;6.598;2023-06-14T05:37:37;15.80;99.90
51884;DHT22;37915;53.254;6.598;2023-06-14T05:40:04;15.90;99.90
51884;DHT22;37915;53.254;6.598;2023-06-14T05:42:34;16.00;99.90
51884;DHT22;37915;53.254;6.598;2023-06-14T05:45:00;16.00;99.90
51884;DHT22;37915;53.254;6.598;2023-06-14T05:47:26;16.10;99.90
51884;DHT22;37915;53.254;6.598;2023-06-14T05:49:53;16.20;99.90
51884;DHT22;37915;53.254;6.598;2023-06-14T05:52:19;16.30;99.90
51884;DHT22;37915;53.254;6.598;2023-06-14T05:54:46;16.40;99.90
51884;DHT22;37915;53.254;6.598;2023-06-14T05:57:12;16.40;99.90
51884;DHT22;37915;53.254;6.598;2023-06-14T05:59:37;16.50;99.90
51884;DHT22;37915;53.254;6.598;2023-06-14T06:02:03;16.60;99.90
51884;DHT22;37915;53.254;6.598;2023-06-14T06:04:29;16.90;99.90
51884;DHT22;37915;53.254;6.598;2023-06-14T06:06:55;16.70;99.90
51884;DHT22;37915;53.254;6.598;2023-06-14T06:09:20;16.80;99.90
51884;DHT22;37915;53.254;6.598;2023-06-14T06:11:46;16.90;99.90
51884;DHT22;37915;53.254;6.598;2023-06-14T06:14:12;16.90;99.90
51884;DHT22;37915;53.254;6.598;2023-06-14T06:16:37;17.00;99.90
51884;DHT22;37915;53.254;6.598;2023-06-14T06:19:03;17.10;99.90
51884;DHT22;37915;53.254;6.598;2023-06-14T06:21:29;17.20;99.90
51884;DHT22;37915;53.254;6.598;2023-06-14T06:23:54;17.30;99.90
51884;DHT22;37915;53.254;6.598;2023-06-14T06:26:22;17.40;99.90
51884;DHT22;37915;53.254;6.598;2023-06-14T06:28:47;17.50;99.90
51884;DHT22;37915;53.254;6.598;2023-06-14T06:31:13;17.60;99.90
51884;DHT22;37915;53.254;6.598;2023-06-14T06:33:39;17.70;99.90
51884;DHT22;37915;53.254;6.598;2023-06-14T06:36:05;17.80;99.90
51884;DHT22;37915;53.254;6.598;2023-06-14T06:38:31;17.80;99.90
51884;DHT22;37915;53.254;6.598;2023-06-14T06:40:56;17.90;99.90
51884;DHT22;37915;53.254;6.598;2023-06-14T06:43:22;18.10;99.90
51884;DHT22;37915;53.254;6.598;2023-06-14T06:45:48;18.10;99.90
51884;DHT22;37915;53.254;6.598;2023-06-14T06:48:14;18.20;99.90
51884;DHT22;37915;53.254;6.598;2023-06-14T06:50:41;18.30;99.90
51884;DHT22;37915;53.254;6.598;2023-06-14T06:53:07;18.40;99.90
51884;DHT22;37915;53.254;6.598;2023-06-14T06:55:32;18.50;99.90
51884;DHT22;37915;53.254;6.598;2023-06-14T06:57:58;18.60;99.90
51884;DHT22;37915;53.254;6.598;2023-06-14T07:00:25;18.70;99.90
51884;DHT22;37915;53.254;6.598;2023-06-14T07:02:51;18.70;99.90
51884;DHT22;37915;53.254;6.598;2023-06-14T07:05:17;18.80;99.90
51884;DHT22;37915;53.254;6.598;2023-06-14T07:07:43;18.90;99.90
51884;DHT22;37915;53.254;6.598;2023-06-14T07:10:09;19.00;99.90
51884;DHT22;37915;53.254;6.598;2023-06-14T07:12:35;19.10;99.90
51884;DHT22;37915;53.254;6.598;2023-06-14T07:15:06;19.20;99.90
51884;DHT22;37915;53.254;6.598;2023-06-14T07:17:32;19.30;99.90
51884;DHT22;37915;53.254;6.598;2023-06-14T07:19:57;19.30;99.90
51884;DHT22;37915;53.254;6.598;2023-06-14T07:22:23;19.40;99.90
51884;DHT22;37915;53.254;6.598;2023-06-14T07:24:49;19.50;99.90
51884;DHT22;37915;53.254;6.598;2023-06-14T07:27:15;19.60;99.90
51884;DHT22;37915;53.254;6.598;2023-06-14T07:29:40;19.70;99.90
51884;DHT22;37915;53.254;6.598;2023-06-14T07:32:06;19.80;99.90
51884;DHT22;37915;53.254;6.598;2023-06-14T07:34:32;19.90;99.90
51884;DHT22;37915;53.254;6.598;2023-06-14T07:36:58;20.00;99.90
51884;DHT22;37915;53.254;6.598;2023-06-14T07:39:23;20.10;99.90
51884;DHT22;37915;53.254;6.598;2023-06-14T07:41:49;20.30;99.90
51884;DHT22;37915;53.254;6.598;2023-06-14T07:44:15;20.40;99.90
51884;DHT22;37915;53.254;6.598;2023-06-14T07:46:41;20.60;99.90
51884;DHT22;37915;53.254;6.598;2023-06-14T07:49:07;20.60;99.90
51884;DHT22;37915;53.254;6.598;2023-06-14T07:51:32;20.70;99.90
51884;DHT22;37915;53.254;6.598;2023-06-14T07:53:59;20.80;99.90
51884;DHT22;37915;53.254;6.598;2023-06-14T07:56:26;20.90;99.90
51884;DHT22;37915;53.254;6.598;2023-06-14T07:58:52;20.80;99.90
51884;DHT22;37915;53.254;6.598;2023-06-14T08:01:18;20.90;99.90
51884;DHT22;37915;53.254;6.598;2023-06-14T08:03:45;21.00;99.90
51884;DHT22;37915;53.254;6.598;2023-06-14T08:06:11;21.20;99.90
51884;DHT22;37915;53.254;6.598;2023-06-14T08:08:37;21.30;99.90
51884;DHT22;37915;53.254;6.598;2023-06-14T08:11:03;21.40;99.90
51884;DHT22;37915;53.254;6.598;2023-06-14T08:13:28;21.50;99.90
51884;DHT22;37915;53.254;6.598;2023-06-14T08:15:54;21.60;99.90
51884;DHT22;37915;53.254;6.598;2023-06-14T08:18:22;21.70;99.90
51884;DHT22;37915;53.254;6.598;2023-06-14T08:20:48;21.90;99.90
51884;DHT22;37915;53.254;6.598;2023-06-14T08:23:14;22.00;99.90
51884;DHT22;37915;53.254;6.598;2023-06-14T08:25:39;22.20;99.90
51884;DHT22;37915;53.254;6.598;2023-06-14T08:28:05;22.20;99.90
51884;DHT22;37915;53.254;6.598;2023-06-14T08:30:31;22.30;99.90
51884;DHT22;37915;53.254;6.598;2023-06-14T08:32:57;22.50;99.90
51884;DHT22;37915;53.254;6.598;2023-06-14T08:35:23;22.70;99.90
51884;DHT22;37915;53.254;6.598;2023-06-14T08:37:49;22.60;99.90
51884;DHT22;37915;53.254;6.598;2023-06-14T08:40:22;22.70;99.90
51884;DHT22;37915;53.254;6.598;2023-06-14T08:42:51;22.80;99.90
51884;DHT22;37915;53.254;6.598;2023-06-14T08:45:19;22.90;99.80
51884;DHT22;37915;53.254;6.598;2023-06-14T08:47:46;23.00;99.90
51884;DHT22;37915;53.254;6.598;2023-06-14T08:50:20;23.10;99.90
51884;DHT22;37915;53.254;6.598;2023-06-14T08:52:48;23.20;99.60
51884;DHT22;37915;53.254;6.598;2023-06-14T08:55:18;23.40;99.40
51884;DHT22;37915;53.254;6.598;2023-06-14T08:57:46;23.60;99.40
51884;DHT22;37915;53.254;6.598;2023-06-14T09:00:14;23.70;99.00
51884;DHT22;37915;53.254;6.598;2023-06-14T09:02:40;23.70;98.80
51884;DHT22;37915;53.254;6.598;2023-06-14T09:05:12;23.70;98.70
51884;DHT22;37915;53.254;6.598;2023-06-14T09:07:44;23.80;98.90
51884;DHT22;37915;53.254;6.598;2023-06-14T09:10:12;23.90;98.80
51884;DHT22;37915;53.254;6.598;2023-06-14T09:12:38;24.00;98.70
51884;DHT22;37915;53.254;6.598;2023-06-14T09:15:05;24.10;98.60
51884;DHT22;37915;53.254;6.598;2023-06-14T09:17:38;24.20;98.40
51884;DHT22;37915;53.254;6.598;2023-06-14T09:20:06;24.20;97.90
51884;DHT22;37915;53.254;6.598;2023-06-14T09:22:33;24.30;98.00
51884;DHT22;37915;53.254;6.598;2023-06-14T09:24:59;24.40;97.90
51884;DHT22;37915;53.254;6.598;2023-06-14T09:27:28;24.40;97.70
51884;DHT22;37915;53.254;6.598;2023-06-14T09:29:54;24.20;97.10
51884;DHT22;37915;53.254;6.598;2023-06-14T09:32:21;24.30;97.50
51884;DHT22;37915;53.254;6.598;2023-06-14T09:34:47;24.30;97.50
51884;DHT22;37915;53.254;6.598;2023-06-14T09:37:25;24.30;97.20
51884;DHT22;37915;53.254;6.598;2023-06-14T09:39:51;24.30;97.30
51884;DHT22;37915;53.254;6.598;2023-06-14T09:42:18;24.50;97.30
51884;DHT22;37915;53.254;6.598;2023-06-14T09:44:49;24.60;97.10
51884;DHT22;37915;53.254;6.598;2023-06-14T09:47:18;24.80;96.90
51884;DHT22;37915;53.254;6.598;2023-06-14T09:49:45;24.80;96.50
51884;DHT22;37915;53.254;6.598;2023-06-14T09:52:13;24.80;96.40
51884;DHT22;37915;53.254;6.598;2023-06-14T09:54:41;24.80;96.40
51884;DHT22;37915;53.254;6.598;2023-06-14T09:57:21;24.80;96.40
51884;DHT22;37915;53.254;6.598;2023-06-14T09:59:48;25.00;96.00
51884;DHT22;37915;53.254;6.598;2023-06-14T10:02:29;25.10;96.60
51884;DHT22;37915;53.254;6.598;2023-06-14T10:05:08;25.30;96.10
51884;DHT22;37915;53.254;6.598;2023-06-14T10:07:59;25.40;95.80
51884;DHT22;37915;53.254;6.598;2023-06-14T10:10:25;25.50;95.40
51884;DHT22;37915;53.254;6.598;2023-06-14T10:12:51;25.50;95.70
51884;DHT22;37915;53.254;6.598;2023-06-14T10:15:30;25.50;95.70
51884;DHT22;37915;53.254;6.598;2023-06-14T10:23:30;25.20;95.30
51884;DHT22;37915;53.254;6.598;2023-06-14T10:25:59;25.30;95.50
51884;DHT22;37915;53.254;6.598;2023-06-14T10:28:26;25.40;95.30
51884;DHT22;37915;53.254;6.598;2023-06-14T10:31:12;25.60;95.30
51884;DHT22;37915;53.254;6.598;2023-06-14T10:33:56;25.70;95.20
51884;DHT22;37915;53.254;6.598;2023-06-14T10:39:17;25.80;95.10
51884;DHT22;37915;53.254;6.598;2023-06-14T10:41:52;25.90;94.70
51884;DHT22;37915;53.254;6.598;2023-06-14T10:46:53;26.00;94.80
51884;DHT22;37915;53.254;6.598;2023-06-14T10:49:20;25.90;94.80
51884;DHT22;37915;53.254;6.598;2023-06-14T10:51:52;25.90;94.70
51884;DHT22;37915;53.254;6.598;2023-06-14T10:54:21;25.90;94.20
51884;DHT22;37915;53.254;6.598;2023-06-14T10:56:48;25.90;94.30
51884;DHT22;37915;53.254;6.598;2023-06-14T10:59:14;25.90;94.20
51884;DHT22;37915;53.254;6.598;2023-06-14T11:04:20;25.90;93.90
51884;DHT22;37915;53.254;6.598;2023-06-14T11:06:49;25.90;93.70
51884;DHT22;37915;53.254;6.598;2023-06-14T11:09:45;25.90;94.00
51884;DHT22;37915;53.254;6.598;2023-06-14T11:12:15;26.00;93.70
51884;DHT22;37915;53.254;6.598;2023-06-14T11:14:46;26.10;94.30
51884;DHT22;37915;53.254;6.598;2023-06-14T11:17:13;26.20;94.00
51884;DHT22;37915;53.254;6.598;2023-06-14T11:19:38;26.30;94.00
51884;DHT22;37915;53.254;6.598;2023-06-14T11:22:04;26.30;93.80
51884;DHT22;37915;53.254;6.598;2023-06-14T11:24:32;26.20;93.70
51884;DHT22;37915;53.254;6.598;2023-06-14T11:26:58;26.20;93.90
51884;DHT22;37915;53.254;6.598;2023-06-14T11:29:24;26.20;93.90
51884;DHT22;37915;53.254;6.598;2023-06-14T11:31:50;26.10;93.80
51884;DHT22;37915;53.254;6.598;2023-06-14T11:34:16;25.90;93.70
51884;DHT22;37915;53.254;6.598;2023-06-14T11:36:42;25.80;93.70
51884;DHT22;37915;53.254;6.598;2023-06-14T11:39:08;25.90;93.60
51884;DHT22;37915;53.254;6.598;2023-06-14T11:41:39;26.00;93.50
51884;DHT22;37915;53.254;6.598;2023-06-14T11:44:06;26.20;93.30
51884;DHT22;37915;53.254;6.598;2023-06-14T11:46:31;26.20;93.40
51884;DHT22;37915;53.254;6.598;2023-06-14T11:48:57;26.30;93.70
51884;DHT22;37915;53.254;6.598;2023-06-14T11:51:23;26.40;93.20
51884;DHT22;37915;53.254;6.598;2023-06-14T11:53:49;26.50;93.20
51884;DHT22;37915;53.254;6.598;2023-06-14T11:56:15;26.70;93.30
51884;DHT22;37915;53.254;6.598;2023-06-14T11:58:43;27.00;93.10
51884;DHT22;37915;53.254;6.598;2023-06-14T12:01:09;27.10;92.90
51884;DHT22;37915;53.254;6.598;2023-06-14T12:03:34;27.00;92.80
51884;DHT22;37915;53.254;6.598;2023-06-14T12:06:05;27.00;92.50
51884;DHT22;37915;53.254;6.598;2023-06-14T12:08:39;26.90;92.20
51884;DHT22;37915;53.254;6.598;2023-06-14T12:11:12;27.00;92.50
51884;DHT22;37915;53.254;6.598;2023-06-14T12:13:42;27.10;92.70
51884;DHT22;37915;53.254;6.598;2023-06-14T12:16:11;27.00;92.70
51884;DHT22;37915;53.254;6.598;2023-06-14T12:18:39;27.10;92.70
51884;DHT22;37915;53.254;6.598;2023-06-14T12:21:07;27.20;92.70
51884;DHT22;37915;53.254;6.598;2023-06-14T12:23:46;27.10;92.60
51884;DHT22;37915;53.254;6.598;2023-06-14T12:26:17;26.80;92.00
51884;DHT22;37915;53.254;6.598;2023-06-14T12:28:46;26.60;92.50
51884;DHT22;37915;53.254;6.598;2023-06-14T12:31:14;26.40;92.30
51884;DHT22;37915;53.254;6.598;2023-06-14T12:33:41;26.30;92.00
51884;DHT22;37915;53.254;6.598;2023-06-14T12:36:07;26.30;92.10
51884;DHT22;37915;53.254;6.598;2023-06-14T12:38:33;26.40;92.00
51884;DHT22;37915;53.254;6.598;2023-06-14T12:40:59;26.50;91.80
51884;DHT22;37915;53.254;6.598;2023-06-14T12:43:25;26.60;91.70
51884;DHT22;37915;53.254;6.598;2023-06-14T12:45:51;26.80;91.90
51884;DHT22;37915;53.254;6.598;2023-06-14T12:48:17;27.00;91.90
51884;DHT22;37915;53.254;6.598;2023-06-14T12:50:43;27.10;91.80
51884;DHT22;37915;53.254;6.598;2023-06-14T12:53:09;27.20;91.80
51884;DHT22;37915;53.254;6.598;2023-06-14T12:55:34;27.40;91.60
51884;DHT22;37915;53.254;6.598;2023-06-14T12:58:00;27.50;91.50
51884;DHT22;37915;53.254;6.598;2023-06-14T13:00:26;27.50;91.30
51884;DHT22;37915;53.254;6.598;2023-06-14T13:02:52;27.40;91.20
51884;DHT22;37915;53.254;6.598;2023-06-14T13:05:18;27.10;91.10
51884;DHT22;37915;53.254;6.598;2023-06-14T13:07:44;26.70;91.10
51884;DHT22;37915;53.254;6.598;2023-06-14T13:10:10;26.50;91.40
51884;DHT22;37915;53.254;6.598;2023-06-14T13:12:36;26.40;91.30
51884;DHT22;37915;53.254;6.598;2023-06-14T13:15:02;26.30;91.20
51884;DHT22;37915;53.254;6.598;2023-06-14T13:17:28;26.20;91.20
51884;DHT22;37915;53.254;6.598;2023-06-14T13:19:53;26.40;91.50
51884;DHT22;37915;53.254;6.598;2023-06-14T13:22:19;26.60;91.60
51884;DHT22;37915;53.254;6.598;2023-06-14T13:24:45;26.80;91.90
51884;DHT22;37915;53.254;6.598;2023-06-14T13:27:11;26.80;91.20
51884;DHT22;37915;53.254;6.598;2023-06-14T13:29:38;26.90;91.00
51884;DHT22;37915;53.254;6.598;2023-06-14T13:32:04;27.10;91.10
51884;DHT22;37915;53.254;6.598;2023-06-14T13:34:30;27.20;91.00
51884;DHT22;37915;53.254;6.598;2023-06-14T13:36:56;27.30;91.10
51884;DHT22;37915;53.254;6.598;2023-06-14T13:39:22;27.30;91.10
51884;DHT22;37915;53.254;6.598;2023-06-14T13:41:48;27.10;91.10
51884;DHT22;37915;53.254;6.598;2023-06-14T13:44:13;27.20;91.10
51884;DHT22;37915;53.254;6.598;2023-06-14T13:46:40;27.30;91.10
51884;DHT22;37915;53.254;6.598;2023-06-14T13:49:08;27.50;91.20
51884;DHT22;37915;53.254;6.598;2023-06-14T13:51:34;27.50;90.70
51884;DHT22;37915;53.254;6.598;2023-06-14T13:54:00;27.30;90.70
51884;DHT22;37915;53.254;6.598;2023-06-14T13:56:26;27.00;90.60
51884;DHT22;37915;53.254;6.598;2023-06-14T13:58:52;26.70;90.70
51884;DHT22;37915;53.254;6.598;2023-06-14T14:01:18;26.60;90.70
51884;DHT22;37915;53.254;6.598;2023-06-14T14:03:49;26.50;90.60
51884;DHT22;37915;53.254;6.598;2023-06-14T14:06:15;26.50;91.00
51884;DHT22;37915;53.254;6.598;2023-06-14T14:08:42;26.60;90.80
51884;DHT22;37915;53.254;6.598;2023-06-14T14:11:08;26.80;90.60
51884;DHT22;37915;53.254;6.598;2023-06-14T14:13:35;27.00;90.70
51884;DHT22;37915;53.254;6.598;2023-06-14T14:16:04;27.10;90.70
51884;DHT22;37915;53.254;6.598;2023-06-14T14:18:30;27.00;90.70
51884;DHT22;37915;53.254;6.598;2023-06-14T14:20:56;26.90;90.70
51884;DHT22;37915;53.254;6.598;2023-06-14T14:23:22;26.90;90.80
51884;DHT22;37915;53.254;6.598;2023-06-14T14:25:48;27.10;90.90
51884;DHT22;37915;53.254;6.598;2023-06-14T14:28:13;27.40;91.00
51884;DHT22;37915;53.254;6.598;2023-06-14T14:30:42;27.60;91.00
51884;DHT22;37915;53.254;6.598;2023-06-14T14:33:07;27.60;90.30
51884;DHT22;37915;53.254;6.598;2023-06-14T14:35:33;27.70;90.30
51884;DHT22;37915;53.254;6.598;2023-06-14T14:37:59;27.90;90.20
51884;DHT22;37915;53.254;6.598;2023-06-14T14:40:25;28.00;90.10
51884;DHT22;37915;53.254;6.598;2023-06-14T14:42:51;27.90;89.80
51884;DHT22;37915;53.254;6.598;2023-06-14T14:45:17;27.80;89.80
51884;DHT22;37915;53.254;6.598;2023-06-14T14:47:43;27.80;90.20
51884;DHT22;37915;53.254;6.598;2023-06-14T14:50:09;27.90;90.20
51884;DHT22;37915;53.254;6.598;2023-06-14T14:52:35;28.10;90.00
51884;DHT22;37915;53.254;6.598;2023-06-14T14:55:01;28.20;90.00
51884;DHT22;37915;53.254;6.598;2023-06-14T14:57:27;28.20;89.70
51884;DHT22;37915;53.254;6.598;2023-06-14T14:59:52;28.30;89.10
51884;DHT22;37915;53.254;6.598;2023-06-14T15:02:18;27.90;89.10
51884;DHT22;37915;53.254;6.598;2023-06-14T15:04:45;27.60;89.70
51884;DHT22;37915;53.254;6.598;2023-06-14T15:07:11;27.30;90.00
51884;DHT22;37915;53.254;6.598;2023-06-14T15:09:37;27.30;90.20
51884;DHT22;37915;53.254;6.598;2023-06-14T15:12:03;27.30;90.30
51884;DHT22;37915;53.254;6.598;2023-06-14T15:14:29;27.60;90.40
51884;DHT22;37915;53.254;6.598;2023-06-14T15:16:55;27.80;90.20
51884;DHT22;37915;53.254;6.598;2023-06-14T15:19:20;27.90;90.20
51884;DHT22;37915;53.254;6.598;2023-06-14T15:21:46;28.10;90.20
51884;DHT22;37915;53.254;6.598;2023-06-14T15:24:12;28.00;90.00
51884;DHT22;37915;53.254;6.598;2023-06-14T15:26:37;28.00;89.50
51884;DHT22;37915;53.254;6.598;2023-06-14T15:29:03;27.80;89.60
51884;DHT22;37915;53.254;6.598;2023-06-14T15:31:29;27.50;89.60
51884;DHT22;37915;53.254;6.598;2023-06-14T15:33:54;27.30;90.00
51884;DHT22;37915;53.254;6.598;2023-06-14T15:36:20;27.10;90.20
51884;DHT22;37915;53.254;6.598;2023-06-14T15:38:46;26.90;90.40
51884;DHT22;37915;53.254;6.598;2023-06-14T15:41:12;26.80;90.70
51884;DHT22;37915;53.254;6.598;2023-06-14T15:43:38;26.70;90.60
51884;DHT22;37915;53.254;6.598;2023-06-14T15:46:03;26.70;90.60